Time;durP1;ratioP1;P1;durP2;ratioP2;P2;SDS_P1;SDS_P2;PMS_P1;PMS_P2;Temp;Humidity;BMP_temperature;BMP_pressure;BME280_temperature;BME280_humidity;BME280_pressure;Samples;Min_cycle;Max_cycle;Signal;HPM_P1;HPM_P2
2022/03/24 00:01:57;;;;;;;50.03;25.58;;;;;;;-142.75;100.00;78842.56;5009383;28;20026;-69
2022/03/24 00:04:23;;;;;;;47.00;24.17;;;;;;;-142.75;100.00;78840.59;5004085;28;20441;-68
2022/03/24 00:06:48;;;;;;;52.83;24.77;;;;;;;-142.75;100.00;78850.44;5000834;28;20072;-68
2022/03/24 00:09:13;;;;;;;55.05;25.95;;;;;;;-142.75;100.00;78846.50;5001985;28;20029;-68
2022/03/24 00:11:39;;;;;;;55.22;26.35;;;;;;;-142.75;100.00;78858.31;5007817;28;20036;-68
2022/03/24 00:14:04;;;;;;;54.30;26.20;;;;;;;-142.75;100.00;78848.47;5001879;28;20115;-69
2022/03/24 00:16:30;;;;;;;50.70;24.90;;;;;;;-142.75;100.00;78856.34;4989688;28;20476;-68
2022/03/24 00:18:56;;;;;;;50.17;25.80;;;;;;;-142.75;100.00;78852.41;4989315;28;20540;-68
2022/03/24 00:21:21;;;;;;;;;;;;;;;-142.75;100.00;78848.47;4989963;28;20031;-68
2022/03/24 00:23:47;;;;;;;47.77;23.60;;;;;;;-142.75;100.00;78852.41;4989511;28;20295;-69
2022/03/24 00:26:12;;;;;;;52.03;24.87;;;;;;;-142.75;100.00;78850.44;4988452;28;20019;-68
2022/03/24 00:28:37;;;;;;;53.80;25.70;;;;;;;-142.75;100.00;78842.56;4988508;28;20381;-69
2022/03/24 00:31:03;;;;;;;49.35;24.73;;;;;;;-142.75;100.00;78848.47;4989672;28;20030;-69
2022/03/24 00:33:29;;;;;;;52.22;25.13;;;;;;;-142.75;100.00;78844.53;4989361;28;20041;-68
2022/03/24 00:35:55;;;;;;;43.75;22.80;;;;;;;-142.75;100.00;78842.56;4989506;28;20026;-68
2022/03/24 00:38:20;;;;;;;51.50;26.20;;;;;;;-142.75;100.00;78840.59;4987916;28;20523;-68
2022/03/24 00:40:46;;;;;;;47.42;22.77;;;;;;;-142.75;100.00;78838.63;4989499;28;20022;-68
2022/03/24 00:43:12;;;;;;;42.85;21.70;;;;;;;-142.75;100.00;78844.53;4991240;28;20066;-68
2022/03/24 00:45:40;;;;;;;50.58;25.08;;;;;;;-142.75;100.00;78842.56;4992016;28;20026;-68
2022/03/24 00:48:06;;;;;;;53.63;23.57;;;;;;;-142.75;100.00;78850.44;4992977;28;20030;-68
2022/03/24 00:50:31;;;;;;;;;;;;;;;-142.75;100.00;78848.47;5004377;28;20030;-68
2022/03/24 00:52:57;;;;;;;35.23;18.33;;;;;;;-142.75;100.00;78864.22;5012705;28;20572;-69
2022/03/24 00:55:22;;;;;;;36.92;19.55;;;;;;;-142.75;100.00;78874.06;5012396;28;20058;-67
2022/03/24 00:57:50;;;;;;;43.33;20.42;;;;;;;-142.75;100.00;78883.91;5012990;28;20030;-67
2022/03/24 01:00:19;;;;;;;34.97;18.67;;;;;;;-142.75;100.00;78915.44;5011649;28;20033;-68
2022/03/24 01:02:48;;;;;;;52.93;24.10;;;;;;;-142.75;100.00;78923.31;5012496;28;20553;-69
2022/03/24 01:05:15;;;;;;;41.70;22.20;;;;;;;-142.75;100.00;78937.09;5011215;28;20025;-68
2022/03/24 01:07:42;;;;;;;39.47;20.83;;;;;;;-142.75;100.00;78939.06;4998512;28;20033;-67
2022/03/24 01:10:09;;;;;;;37.67;19.53;;;;;;;-142.75;100.00;78950.88;5000098;28;20033;-69
2022/03/24 01:12:35;;;;;;;39.73;20.63;;;;;;;-142.75;100.00;78974.53;5012272;28;20064;-69
2022/03/24 01:15:04;;;;;;;45.67;22.43;;;;;;;-142.75;100.00;78992.25;5012189;28;20057;-69
2022/03/24 01:17:31;;;;;;;54.70;25.63;;;;;;;-142.75;100.00;79008.00;5012380;28;20108;-69
2022/03/24 01:19:56;;;;;;;47.30;24.17;;;;;;;-142.75;100.00;79015.88;5011969;28;20037;-68
2022/03/24 01:22:21;;;;;;;41.90;20.33;;;;;;;-142.75;100.00;79017.84;5010937;28;20042;-68
2022/03/24 01:24:47;;;;;;;45.72;22.48;;;;;;;-142.75;100.00;79013.91;5011868;28;20025;-67
2022/03/24 01:27:14;;;;;;;44.92;21.15;;;;;;;-142.75;100.00;79008.00;5012363;28;20029;-68
2022/03/24 01:29:40;;;;;;;49.50;24.03;;;;;;;-142.75;100.00;79008.00;5012267;28;20072;-68
2022/03/24 01:32:05;;;;;;;52.38;26.42;;;;;;;-142.75;100.00;78990.28;5012010;28;22494;-68
2022/03/24 01:34:30;;;;;;;56.15;28.50;;;;;;;-142.75;100.00;78978.47;5010501;28;20062;-67
2022/03/24 01:36:56;;;;;;;49.90;24.37;;;;;;;-142.75;100.00;78972.56;5010766;28;20053;-68
2022/03/24 01:39:22;;;;;;;54.42;24.77;;;;;;;-142.75;100.00;78976.50;5011836;28;20355;-68
2022/03/24 01:41:50;;;;;;;41.53;19.93;;;;;;;-142.75;100.00;78976.50;5012003;28;20044;-68
2022/03/24 01:44:17;;;;;;;57.30;27.43;;;;;;;-142.75;100.00;78972.56;5011683;28;20024;-68
2022/03/24 01:47:02;;;;;;;48.50;23.73;;;;;;;-142.75;100.00;78972.56;5011764;28;20447;-69
2022/03/24 01:49:30;;;;;;;44.17;22.00;;;;;;;-142.75;100.00;78978.47;5010192;28;20479;-68
2022/03/24 01:51:56;;;;;;;40.97;20.10;;;;;;;-142.75;100.00;79006.03;5010363;28;20085;-69
2022/03/24 01:54:22;;;;;;;32.88;17.23;;;;;;;-142.75;100.00;79047.41;5010209;28;20512;-68
2022/03/24 01:56:49;;;;;;;34.03;17.40;;;;;;;-142.75;100.00;79049.38;5010232;28;20037;-67
2022/03/24 01:59:17;;;;;;;;;;;;;;;-142.75;100.00;79059.22;5012254;28;20025;-68
2022/03/24 02:01:43;;;;;;;38.43;18.03;;;;;;;-142.75;100.00;79055.28;5011920;28;19921;-68
2022/03/24 02:04:08;;;;;;;53.38;25.17;;;;;;;-142.75;100.00;79043.47;5005841;28;20026;-68
2022/03/24 02:06:34;;;;;;;46.30;24.90;;;;;;;-142.75;100.00;79041.50;5010025;28;20037;-69
2022/03/24 02:09:00;;;;;;;49.17;23.85;;;;;;;-142.75;100.00;79037.56;4990899;28;20030;-69
2022/03/24 02:11:27;;;;;;;57.47;26.80;;;;;;;-142.75;100.00;79035.59;5008072;28;20115;-67
2022/03/24 02:13:52;;;;;;;52.50;24.37;;;;;;;-142.75;100.00;79037.56;5010127;28;20502;-68
2022/03/24 02:16:17;;;;;;;54.05;24.10;;;;;;;-142.75;100.00;79029.66;5009933;28;20113;-67
2022/03/24 02:18:45;;;;;;;60.13;27.92;;;;;;;-142.75;100.00;79031.66;5001796;28;20022;-69
2022/03/24 02:21:14;;;;;;;42.43;21.67;;;;;;;-142.75;100.00;79039.53;4991490;28;20173;-68
2022/03/24 02:23:41;;;;;;;40.20;21.07;;;;;;;-142.75;100.00;79059.22;4990416;28;20022;-68
2022/03/24 02:26:07;;;;;;;;;;;;;;;-142.75;100.00;79069.06;4992003;28;20028;-68
2022/03/24 02:28:33;;;;;;;39.60;19.80;;;;;;;-142.75;100.00;79071.03;5009848;28;20287;-68
2022/03/24 02:30:58;;;;;;;47.38;21.42;;;;;;;-142.75;100.00;79073.00;5011154;28;20025;-68
2022/03/24 02:33:23;;;;;;;34.43;17.83;;;;;;;-142.75;100.00;79067.09;5009512;28;20026;-67
2022/03/24 02:35:52;;;;;;;46.58;22.20;;;;;;;-142.75;100.00;79071.03;5010884;28;20030;-68
2022/03/24 02:38:21;;;;;;;53.40;24.73;;;;;;;-142.75;100.00;79074.97;5009267;28;20033;-67
2022/03/24 02:40:49;;;;;;;47.50;22.97;;;;;;;-142.75;100.00;79078.91;5010734;28;20036;-69
2022/03/24 02:43:20;;;;;;;46.70;22.80;;;;;;;-142.75;100.00;79098.63;5010899;28;20029;-68
2022/03/24 02:45:46;;;;;;;48.70;25.70;;;;;;;-142.75;100.00;79110.44;5009722;28;20034;-67
2022/03/24 02:48:13;;;;;;;57.67;26.70;;;;;;;-142.75;100.00;79094.69;5010423;28;20037;-67
2022/03/24 02:50:38;;;;;;;57.40;27.30;;;;;;;-142.75;100.00;79084.81;4999176;28;20425;-68
2022/03/24 02:53:04;;;;;;;50.35;23.98;;;;;;;-142.75;100.00;79078.91;4989861;28;20030;-68
2022/03/24 02:55:30;;;;;;;39.70;20.08;;;;;;;-142.75;100.00;79078.91;4991160;28;20030;-68
2022/03/24 02:57:55;;;;;;;48.25;21.85;;;;;;;-142.75;100.00;79080.88;4989807;28;20129;-68
2022/03/24 03:00:25;;;;;;;45.47;20.27;;;;;;;-142.75;100.00;79094.69;4991258;28;20094;-68
2022/03/24 03:02:51;;;;;;;38.83;20.47;;;;;;;-142.75;100.00;79102.56;4996337;28;20022;-68
2022/03/24 03:05:16;;;;;;;40.42;18.92;;;;;;;-142.75;100.00;79104.53;5009672;28;20033;-66
2022/03/24 03:07:41;;;;;;;36.27;17.27;;;;;;;-142.75;100.00;79100.59;5010196;28;20564;-68
2022/03/24 03:10:07;;;;;;;42.27;18.90;;;;;;;-142.75;100.00;79098.63;5008726;28;20273;-69
2022/03/24 03:12:32;;;;;;;45.33;21.40;;;;;;;-142.75;100.00;79098.63;5010175;28;20024;-68
2022/03/24 03:14:57;;;;;;;44.43;20.43;;;;;;;-142.75;100.00;79106.50;4994094;28;20034;-68
2022/03/24 03:17:23;;;;;;;44.60;20.30;;;;;;;-142.75;100.00;79108.47;4990696;28;20309;-68
2022/03/24 03:19:48;;;;;;;41.63;21.20;;;;;;;-142.75;100.00;79100.59;4990135;28;20280;-67
2022/03/24 03:22:16;;;;;;;46.45;22.75;;;;;;;-142.75;100.00;79096.66;4999148;28;20045;-67
2022/03/24 03:24:42;;;;;;;38.87;20.20;;;;;;;-142.75;100.00;79106.50;5037632;22;20546;-67
2022/03/24 03:27:08;;;;;;;36.78;16.98;;;;;;;-142.75;100.00;79126.19;5046677;28;20112;-67
2022/03/24 03:29:33;;;;;;;31.63;15.50;;;;;;;-142.75;100.00;79134.06;5047764;28;20029;-68
2022/03/24 03:31:59;;;;;;;19.52;11.18;;;;;;;-142.75;100.00;79139.97;5049764;28;20036;-67
2022/03/24 03:34:24;;;;;;;18.03;10.43;;;;;;;-142.75;100.00;79139.97;5048123;28;20025;-67
2022/03/24 03:36:53;;;;;;;34.55;17.00;;;;;;;-142.75;100.00;79136.03;5048110;28;20272;-67
2022/03/24 03:39:18;;;;;;;40.27;20.50;;;;;;;-142.75;100.00;79126.19;5049035;28;20016;-67
2022/03/24 03:41:44;;;;;;;63.70;29.50;;;;;;;-142.75;100.00;79110.44;5049307;28;20013;-66
2022/03/24 03:44:11;;;;;;;68.90;32.50;;;;;;;-142.75;100.00;79100.59;5049460;28;20099;-67
2022/03/24 03:46:37;;;;;;;80.20;35.40;;;;;;;-142.75;100.00;79082.84;5049128;28;20033;-67
2022/03/24 03:49:03;;;;;;;56.15;29.10;;;;;;;-142.75;100.00;79094.69;5048724;28;20565;-67
2022/03/24 03:51:31;;;;;;;52.30;25.50;;;;;;;-142.75;100.00;79090.72;5048965;28;20031;-67
2022/03/24 03:53:57;;;;;;;60.23;28.40;;;;;;;-142.75;100.00;79106.50;5049098;28;20028;-67
2022/03/24 03:56:23;;;;;;;32.03;16.27;;;;;;;-142.75;100.00;79139.97;5048894;28;20075;-67
2022/03/24 03:58:48;;;;;;;28.42;15.57;;;;;;;-142.75;100.00;79141.94;5049396;28;20024;-66
2022/03/24 04:01:14;;;;;;;31.48;16.50;;;;;;;-142.75;100.00;79132.09;5049373;28;20494;-67
2022/03/24 04:03:39;;;;;;;51.60;24.35;;;;;;;-142.75;100.00;79124.22;5049020;28;20052;-67
2022/03/24 04:06:10;;;;;;;69.18;30.90;;;;;;;-142.75;100.00;79118.31;5048806;28;20060;-67
2022/03/24 04:08:38;;;;;;;52.73;23.97;;;;;;;-142.75;100.00;79126.19;5048642;28;20139;-67
2022/03/24 04:11:06;;;;;;;47.73;24.67;;;;;;;-142.75;100.00;79118.31;5048738;28;20037;-67
2022/03/24 04:13:32;;;;;;;52.80;24.47;;;;;;;-142.75;100.00;79120.28;5047829;28;20024;-67
2022/03/24 04:15:57;;;;;;;56.97;25.67;;;;;;;-142.75;100.00;79108.47;5049065;28;20556;-68
2022/03/24 04:18:23;;;;;;;48.92;24.23;;;;;;;-142.75;100.00;79112.41;5047957;28;20025;-67
2022/03/24 04:20:49;;;;;;;;;;;;;;;-142.75;100.00;79106.50;5049392;28;20423;-67
2022/03/24 04:23:16;;;;;;;74.83;34.90;;;;;;;-142.75;100.00;79098.63;5049066;28;19913;-67
2022/03/24 04:25:41;;;;;;;66.83;32.80;;;;;;;-142.75;100.00;79094.69;5048770;28;20097;-67
2022/03/24 04:28:07;;;;;;;79.72;37.17;;;;;;;-142.75;100.00;79090.72;5049228;28;20088;-67
2022/03/24 04:30:34;;;;;;;82.13;37.35;;;;;;;-142.75;100.00;79084.81;5047687;28;20082;-67
2022/03/24 04:32:59;;;;;;;60.63;29.27;;;;;;;-142.75;100.00;79080.88;5049017;28;20108;-67
2022/03/24 04:35:26;;;;;;;60.13;29.63;;;;;;;-142.75;100.00;79118.31;5048727;28;20112;-67
2022/03/24 04:37:51;;;;;;;41.23;18.20;;;;;;;-142.75;100.00;79134.06;5048528;28;20039;-67
2022/03/24 04:40:18;;;;;;;19.58;10.38;;;;;;;-142.75;100.00;79167.56;5046166;28;21716;-67
2022/03/24 04:42:46;;;;;;;17.63;9.37;;;;;;;-142.75;100.00;79193.16;5029048;28;20116;-67
2022/03/24 04:45:13;;;;;;;21.50;10.57;;;;;;;-142.75;100.00;79193.16;5027923;28;20071;-67
2022/03/24 04:47:39;;;;;;;28.03;14.63;;;;;;;-142.75;100.00;79173.47;5028837;28;20029;-67
2022/03/24 04:50:05;;;;;;;24.92;15.02;;;;;;;-142.75;100.00;79185.28;5027540;28;20053;-66
2022/03/24 04:52:31;;;;;;;24.30;13.30;;;;;;;-142.75;100.00;79183.31;5029003;28;20716;-67
2022/03/24 04:54:56;;;;;;;28.65;14.00;;;;;;;-142.75;100.00;79185.28;5027574;28;20029;-67
2022/03/24 04:57:21;;;;;;;16.67;9.67;;;;;;;-142.75;100.00;79201.03;5029059;28;20025;-67
2022/03/24 04:59:46;;;;;;;52.47;23.43;;;;;;;-142.75;100.00;79197.09;5029315;28;20282;-67
2022/03/24 05:02:15;;;;;;;46.45;23.23;;;;;;;-142.75;100.00;79193.16;5029123;28;20025;-67
2022/03/24 05:04:42;;;;;;;39.17;20.13;;;;;;;-142.75;100.00;79203.00;5028917;28;20025;-67
2022/03/24 05:07:07;;;;;;;36.10;17.63;;;;;;;-142.75;100.00;79204.97;5028904;28;20033;-67
2022/03/24 05:09:33;;;;;;;35.95;18.38;;;;;;;-142.75;100.00;79199.06;5028858;28;20025;-67
2022/03/24 05:11:58;;;;;;;45.75;21.35;;;;;;;-142.75;100.00;79212.84;5028781;28;20076;-67
2022/03/24 05:14:23;;;;;;;41.55;19.52;;;;;;;-142.75;100.00;79193.16;5029256;28;20037;-67
2022/03/24 05:16:48;;;;;;;59.77;28.27;;;;;;;-142.75;100.00;79187.25;5028599;28;20025;-67
2022/03/24 05:19:14;;;;;;;60.90;29.80;;;;;;;-142.75;100.00;79185.28;5028943;28;20287;-68
2022/03/24 05:21:39;;;;;;;54.83;28.67;;;;;;;-142.75;100.00;79181.34;5028810;28;20099;-67
2022/03/24 05:24:05;;;;;;;51.80;24.25;;;;;;;-142.75;100.00;79197.09;5028146;28;20422;-66
2022/03/24 05:26:30;;;;;;;50.15;25.55;;;;;;;-142.75;100.00;79189.22;5028623;28;20029;-67
2022/03/24 05:28:55;;;;;;;52.03;25.10;;;;;;;-142.75;100.00;79185.28;5029804;28;20032;-67
2022/03/24 05:31:21;;;;;;;39.65;21.38;;;;;;;-142.75;100.00;79183.31;5032091;28;20060;-67
2022/03/24 05:33:46;;;;;;;31.35;15.75;;;;;;;-142.75;100.00;79220.75;5032065;28;20029;-67
2022/03/24 05:36:12;;;;;;;22.13;13.23;;;;;;;-142.75;100.00;79232.56;5031859;28;20089;-66
2022/03/24 05:38:37;;;;;;;29.20;16.05;;;;;;;-142.75;100.00;79220.75;5030316;28;20083;-67
2022/03/24 05:41:04;;;;;;;34.00;17.08;;;;;;;-142.75;100.00;79220.75;5030203;28;20013;-67
2022/03/24 05:43:30;;;;;;;41.60;20.83;;;;;;;-142.75;100.00;79218.75;5031835;28;20095;-66
2022/03/24 05:45:55;;;;;;;57.58;28.63;;;;;;;-142.75;100.00;79212.84;5032129;28;20438;-67
2022/03/24 05:48:21;;;;;;;38.70;17.85;;;;;;;-142.75;100.00;79210.88;5031190;28;20033;-67
2022/03/24 05:50:46;;;;;;;31.33;15.27;;;;;;;-142.75;100.00;79224.69;5031705;28;20101;-66
2022/03/24 05:53:12;;;;;;;43.22;22.65;;;;;;;-142.75;100.00;79218.75;5031910;28;20325;-67
2022/03/24 05:55:38;;;;;;;55.00;26.70;;;;;;;-142.75;100.00;79206.94;5031538;28;20036;-67
2022/03/24 05:58:04;;;;;;;30.67;16.60;;;;;;;-142.75;100.00;79208.91;5031428;28;20025;-67
2022/03/24 06:00:30;;;;;;;56.42;26.83;;;;;;;-142.75;100.00;79195.13;5031645;28;20032;-67
2022/03/24 06:02:57;;;;;;;60.33;27.10;;;;;;;-142.75;100.00;79171.50;5031508;28;20021;-67
2022/03/24 06:05:25;;;;;;;48.53;24.63;;;;;;;-142.75;100.00;79165.59;5031368;28;20021;-67
2022/03/24 06:07:50;;;;;;;48.20;24.63;;;;;;;-142.75;100.00;79157.72;5031220;28;20057;-67
2022/03/24 06:10:16;;;;;;;60.03;27.10;;;;;;;-142.75;100.00;79141.94;5031311;28;20542;-67
2022/03/24 06:12:41;;;;;;;65.05;31.17;;;;;;;-142.75;100.00;79122.25;5031277;28;20028;-66
2022/03/24 06:15:07;;;;;;;52.30;25.38;;;;;;;-142.75;100.00;79110.44;5031259;28;20100;-67
2022/03/24 06:17:33;;;;;;;52.97;26.52;;;;;;;-142.75;100.00;79100.59;5031128;28;20065;-67
2022/03/24 06:20:01;;;;;;;;;;;;;;;-142.75;100.00;79098.63;5029977;28;20049;-66
2022/03/24 06:22:27;;;;;;;44.13;22.87;;;;;;;-142.75;100.00;79084.81;5031096;28;19913;-66
2022/03/24 06:24:52;;;;;;;47.88;24.75;;;;;;;-142.75;100.00;79076.94;5030901;28;20032;-66
2022/03/24 06:27:17;;;;;;;34.45;18.27;;;;;;;-142.75;100.00;79071.03;5031023;28;20503;-67
2022/03/24 06:29:43;;;;;;;22.48;12.98;;;;;;;-142.75;100.00;79090.72;5030849;28;20032;-66
2022/03/24 06:32:09;;;;;;;22.17;12.85;;;;;;;-142.75;100.00;79086.78;5031251;28;20028;-66
2022/03/24 06:34:34;;;;;;;36.88;17.90;;;;;;;-142.75;100.00;79080.88;5030998;28;20396;-67
2022/03/24 06:37:01;;;;;;;40.40;21.17;;;;;;;-142.75;100.00;79074.97;5029694;28;20021;-67
2022/03/24 06:39:26;;;;;;;29.27;16.03;;;;;;;-142.75;100.00;79074.97;5030424;28;20033;-67
2022/03/24 06:41:51;;;;;;;34.70;16.10;;;;;;;-142.75;100.00;79059.22;5028878;28;20018;-66
2022/03/24 06:44:16;;;;;;;39.90;18.67;;;;;;;-142.75;100.00;79047.41;5030786;28;20048;-66
2022/03/24 06:46:42;;;;;;;32.73;17.33;;;;;;;-142.75;100.00;79033.63;5029430;28;20033;-67
2022/03/24 06:49:07;;;;;;;41.05;19.75;;;;;;;-142.75;100.00;79011.94;5028967;28;20280;-67
2022/03/24 06:51:34;;;;;;;29.33;16.02;;;;;;;-142.75;100.00;78988.31;5030443;28;20029;-66
2022/03/24 06:54:01;;;;;;;31.17;17.17;;;;;;;-142.75;100.00;78980.44;5030564;28;20029;-66
2022/03/24 06:56:27;;;;;;;31.57;17.13;;;;;;;-142.75;100.00;78978.47;5030552;28;20029;-67
2022/03/24 06:58:52;;;;;;;32.63;15.80;;;;;;;-142.75;100.00;78948.91;5030346;28;20033;-67
2022/03/24 07:01:18;;;;;;;64.30;33.78;;;;;;;-142.75;100.00;78917.41;5030358;28;20037;-67
2022/03/24 07:03:44;;;;;;;67.45;34.45;;;;;;;-142.75;100.00;78878.00;5030133;28;20539;-67
2022/03/24 07:06:09;;;;;;;76.38;34.00;;;;;;;-142.75;100.00;78832.72;5030146;28;20029;-67
2022/03/24 07:08:35;;;;;;;71.28;34.50;;;;;;;-142.75;100.00;78787.41;5029969;28;20495;-67
2022/03/24 07:11:01;;;;;;;67.23;34.77;;;;;;;-142.75;100.00;78748.03;5030086;28;20069;-67
2022/03/24 07:13:27;;;;;;;62.28;30.75;;;;;;;-142.75;100.00;78718.47;5030116;28;20065;-66
2022/03/24 07:15:52;;;;;;;61.70;30.77;;;;;;;-142.75;100.00;78683.03;5030153;28;20021;-67
2022/03/24 07:18:18;;;;;;;50.15;28.60;;;;;;;-142.75;100.00;78651.50;5029729;28;20299;-67
2022/03/24 07:20:43;;;;;;;56.33;28.33;;;;;;;-142.75;100.00;78639.69;5030196;28;20013;-67
2022/03/24 07:23:09;;;;;;;67.22;36.42;;;;;;;-142.75;100.00;78614.09;5030090;28;20013;-67
2022/03/24 07:25:36;;;;;;;;;;;;;;;-142.75;100.00;78570.75;5030300;28;20111;-67
2022/03/24 07:28:02;;;;;;;59.88;31.08;;;;;;;-142.75;100.00;78541.22;5029945;28;19913;-67
2022/03/24 07:30:28;;;;;;;65.03;32.70;;;;;;;-142.75;100.00;78519.56;5030143;28;20037;-67
2022/03/24 07:32:58;;;;;;;61.05;31.95;;;;;;;-142.75;100.00;78482.13;5030053;28;20079;-67
2022/03/24 07:35:24;;;;;;;60.13;30.25;;;;;;;-142.75;100.00;78466.38;5029552;28;20083;-66
2022/03/24 07:37:50;;;;;;;;;;;;;;;-142.75;100.00;78428.97;5029871;28;20033;-66
2022/03/24 07:40:18;;;;;;;62.28;31.17;;;;;;;-142.75;100.00;78397.44;5029619;28;19913;-67
2022/03/24 07:42:46;;;;;;;58.70;31.20;;;;;;;-142.75;100.00;78375.78;5029338;28;20013;-67
2022/03/24 07:45:12;;;;;;;56.55;30.17;;;;;;;-142.75;100.00;78350.19;5029741;28;20049;-67
2022/03/24 07:48:12;;;;;;;60.25;30.48;;;;;;;-142.75;100.00;78299.00;5029263;28;20513;-68
2022/03/24 07:50:41;;;;;;;60.63;29.83;;;;;;;-142.75;100.00;78241.88;5028274;28;20487;-66
2022/03/24 07:53:12;;;;;;;65.90;32.33;;;;;;;-142.75;100.00;78204.47;5027539;28;20499;-67
2022/03/24 07:55:41;;;;;;;58.40;30.17;;;;;;;-142.75;100.00;78192.66;5027978;28;20125;-67
2022/03/24 07:58:07;;;;;;;58.22;32.72;;;;;;;-142.75;100.00;78149.31;5028298;28;20033;-67
2022/03/24 08:00:32;;;;;;;53.63;27.73;;;;;;;-142.75;100.00;78111.91;5028677;28;20391;-67
2022/03/24 08:02:57;;;;;;;51.92;26.65;;;;;;;-142.75;100.00;78090.25;5028553;28;20029;-67
2022/03/24 08:05:22;;;;;;;57.45;28.08;;;;;;;-142.75;100.00;78066.63;5026822;28;20025;-67
2022/03/24 08:07:48;;;;;;;;;;;;;;;-142.75;100.00;78052.81;5026697;28;20025;-67
2022/03/24 08:10:13;;;;;;;51.17;26.73;;;;;;;-142.75;100.00;78064.66;5026826;28;19920;-67
2022/03/24 08:12:38;;;;;;;;;;;;;;;-142.75;100.00;78076.47;5028508;28;20509;-67
2022/03/24 08:15:04;;;;;;;61.92;27.05;;;;;;;-142.75;100.00;78082.38;5028262;28;19913;-67
2022/03/24 08:17:29;;;;;;;;;;;;;;;-142.75;100.00;78072.53;5028678;28;20426;-67
2022/03/24 08:19:54;;;;;;;49.20;23.95;;;;;;;-142.75;100.00;78044.94;5027866;28;20012;-67
2022/03/24 08:22:20;;;;;;;41.97;22.15;;;;;;;-142.75;100.00;78001.63;5028047;28;20357;-67
2022/03/24 08:24:45;;;;;;;;;;;;;;;-142.75;100.00;77972.09;5028823;28;20052;-67
2022/03/24 08:27:10;;;;;;;38.33;20.00;;;;;;;-142.75;100.00;77948.47;5028798;28;20314;-67
2022/03/24 08:29:35;;;;;;;;;;;;;;;-142.75;100.00;77924.84;5029495;28;20025;-67
2022/03/24 08:32:01;;;;;;;38.40;20.92;;;;;;;-142.75;100.00;77909.06;5028857;28;19924;-68
2022/03/24 08:34:26;;;;;;;;;;;;;;;-142.75;100.00;77889.38;5029395;28;20026;-67
2022/03/24 08:36:52;;;;;;;36.42;18.73;;;;;;;-142.75;96.91;77885.44;5028703;28;19924;-66
2022/03/24 08:39:17;;;;;;;;;;;;;;;-142.75;92.57;77869.69;5029004;28;20017;-66
2022/03/24 08:41:43;;;;;;;34.42;20.10;;;;;;;-142.75;93.43;77861.81;5029039;28;19921;-67
2022/03/24 08:44:10;;;;;;;35.03;19.13;;;;;;;-142.75;89.15;77836.22;5028750;28;20558;-67
2022/03/24 08:46:35;;;;;;;31.27;19.00;;;;;;;-142.75;88.13;77785.03;5026404;28;20029;-67
2022/03/24 08:49:00;;;;;;;;;;;;;;;-142.75;84.42;77790.94;5028696;28;20033;-67
2022/03/24 08:51:27;;;;;;;35.65;19.90;;;;;;;-142.75;89.31;77767.31;5028501;28;19939;-67
2022/03/24 08:53:52;;;;;;;35.53;19.45;;;;;;;-142.75;89.18;77775.19;5030895;28;20020;-67
2022/03/24 08:56:17;;;;;;;;;;;;;;;-142.75;87.24;77771.25;5030015;28;20033;-68
2022/03/24 08:58:43;;;;;;;38.78;20.45;;;;;;;-142.75;87.56;77769.28;5037028;28;20003;-67
2022/03/24 09:01:10;;;;;;;;;;;;;;;-142.75;87.52;77753.53;5049497;28;20021;-67
2022/03/24 09:03:36;;;;;;;34.53;19.70;;;;;;;-142.75;87.14;77783.06;5049866;28;19912;-68
2022/03/24 09:06:01;;;;;;;;;;;;;;;-142.75;88.98;77767.31;5053097;28;20024;-67
2022/03/24 09:08:26;;;;;;;35.88;20.67;;;;;;;-142.75;85.11;77763.38;5052420;28;20381;-68
2022/03/24 09:10:51;;;;;;;;;;;;;;;-142.75;74.66;77739.75;5048629;28;20075;-67
2022/03/24 09:13:17;;;;;;;37.72;19.42;;;;;;;-142.75;71.29;77731.88;5032987;28;19999;-66
2022/03/24 09:15:44;;;;;;;;;;;;;;;-142.75;67.01;77692.47;5033256;28;20053;-67
2022/03/24 09:18:10;;;;;;;29.45;17.15;;;;;;;-142.75;70.44;77653.09;5032727;28;19924;-67
2022/03/24 09:20:35;;;;;;;;;;;;;;;-142.75;70.30;77631.44;5032831;28;20423;-68
2022/03/24 09:23:01;;;;;;;31.88;17.15;;;;;;;-142.75;60.44;77619.63;5032858;28;19995;-67
2022/03/24 09:25:26;;;;;;;;;;;;;;;-142.75;63.57;77613.72;5045669;22;20123;-66
2022/03/24 09:27:51;;;;;;;30.48;16.38;;;;;;;-142.75;61.65;77594.03;4991522;28;20071;-67
2022/03/24 09:30:18;;;;;;;29.38;16.80;;;;;;;-142.75;55.57;77574.34;4992714;28;20117;-69
2022/03/24 09:32:45;;;;;;;29.92;15.18;;;;;;;-142.75;56.52;77538.91;4993152;28;20038;-73
2022/03/24 09:35:11;;;;;;;31.42;18.10;;;;;;;-142.75;57.65;77554.66;4993325;28;20038;-69
2022/03/24 09:37:37;;;;;;;30.80;17.48;;;;;;;-142.75;56.50;77534.97;5008083;28;20061;-70
2022/03/24 09:40:03;;;;;;;;;;;;;;;-142.75;56.86;77519.22;4993174;28;20046;-69
2022/03/24 09:42:29;;;;;;;31.10;17.08;;;;;;;-142.75;56.04;77507.41;4993199;28;19917;-69
2022/03/24 09:45:00;;;;;;;30.80;18.33;;;;;;;-142.75;56.64;77503.47;4991879;28;20428;-69
2022/03/24 09:47:26;;;;;;;29.63;17.38;;;;;;;-142.75;56.92;77509.38;4992520;28;20057;-70
2022/03/24 09:49:52;;;;;;;31.83;18.75;;;;;;;-142.75;55.33;77466.03;4993500;28;20030;-71
2022/03/24 09:52:17;;;;;;;29.80;17.48;;;;;;;-142.75;52.30;77450.28;4993508;28;20084;-69
2022/03/24 09:54:45;;;;;;;;;;;;;;;-142.75;54.04;77444.38;4994247;28;20058;-69
2022/03/24 09:57:10;;;;;;;;;;;;;;;-142.75;45.79;77377.44;5009099;28;19913;-70
2022/03/24 09:59:35;;;;;;;30.15;17.17;;;;;;;-142.75;49.51;77340.03;4993161;28;19920;-69
2022/03/24 10:02:01;;;;;;;;;;;;;;;-142.75;50.07;77342.00;4992619;28;20018;-69
2022/03/24 10:04:27;;;;;;;34.35;18.13;;;;;;;-142.75;48.20;77324.28;4993045;28;19917;-70
2022/03/24 10:07:01;;;;;;;29.65;17.98;;;;;;;-142.75;43.52;77296.72;4992495;28;20037;-69
2022/03/24 10:09:40;;;;;;;32.25;18.05;;;;;;;-142.75;43.40;77265.22;4991171;28;20480;-69
2022/03/24 10:12:08;;;;;;;28.08;17.38;;;;;;;-142.75;44.89;77279.00;4992631;28;20142;-68
2022/03/24 10:14:34;;;;;;;30.52;18.67;;;;;;;-142.75;42.30;77261.28;4993087;28;20089;-71
2022/03/24 10:17:10;;;;;;;34.42;19.77;;;;;;;-142.75;39.86;77275.06;4992256;28;20030;-69
2022/03/24 10:19:37;;;;;;;26.55;16.90;;;;;;;-142.75;41.71;77290.81;4992792;28;20547;-69
2022/03/24 10:22:10;;;;;;;25.42;16.10;;;;;;;-142.75;44.55;77251.44;4992180;28;20033;-69
2022/03/24 10:24:42;;;;;;;28.90;17.08;;;;;;;-142.75;44.52;77255.38;4991099;28;20026;-70
2022/03/24 10:27:07;;;;;;;31.17;18.42;;;;;;;-142.75;42.43;77247.50;4992822;28;20053;-68
2022/03/24 10:29:34;;;;;;;30.70;18.00;;;;;;;-142.75;42.62;77223.88;4992891;28;20018;-69
2022/03/24 10:32:02;;;;;;;30.38;17.25;;;;;;;-142.75;46.53;77233.72;4992633;28;20026;-69
2022/03/24 10:34:37;;;;;;;35.10;18.05;;;;;;;-142.75;40.86;77162.84;4993306;28;20080;-67
2022/03/24 10:37:05;;;;;;;27.23;16.75;;;;;;;-142.75;41.40;77149.06;4992702;28;20022;-68
2022/03/24 10:39:32;;;;;;;27.77;17.50;;;;;;;-142.75;42.86;77145.13;4992135;28;20026;-70
2022/03/24 10:42:15;;;;;;;26.05;16.33;;;;;;;-142.75;36.29;77133.31;4991308;28;20026;-69
2022/03/24 10:45:05;;;;;;;26.45;16.35;;;;;;;-142.75;37.36;77168.75;4991737;28;20026;-68
2022/03/24 10:47:43;;;;;;;27.92;17.55;;;;;;;-142.75;38.65;77149.06;4984264;28;20128;-68
2022/03/24 10:50:32;;;;;;;26.50;17.58;;;;;;;-142.75;34.68;77147.09;4992502;28;20100;-71
2022/03/24 10:53:06;;;;;;;26.52;15.85;;;;;;;-142.75;35.93;77154.97;4991430;28;20113;-70
2022/03/24 10:55:44;;;;;;;27.67;17.13;;;;;;;-142.75;31.05;77074.25;4991642;28;20449;-70
2022/03/24 10:58:24;;;;;;;30.55;18.25;;;;;;;-142.75;31.03;77058.50;4992398;28;20117;-71
2022/03/24 11:00:52;;;;;;;31.88;18.25;;;;;;;-142.75;31.52;77048.66;4992571;28;20105;-71
2022/03/24 11:03:19;;;;;;;29.02;18.60;;;;;;;-142.75;31.92;77044.72;4991688;28;20560;-70